Maria — SV7156 — position and weather

sailwx.info

Track history (hours):
 
Tides and Currents Weather Stations Pressure Air Temp Water Temp Dewpoint Dewpoint Depression Visibility Wind Speed Wind Dir Waves Ship Positions

Maria

Last reported at 2017-Jan-20 19:33 UTC. Time now 2017-Jan-20 20:12 UTC.
Position N 37°51' E 023°31'.

Length 74 m; draft 4.5 m.

Type: Ship. MMSI: 237493000.

Date/timePositionNaut miles runAvg speedWind from/ knotsBaromVisibWave heightAir tempDewpointWater temp
2017-Jan-20 19:33N 37°51' E 023°31'0 0.0
2017-Jan-20 18:33N 37°51' E 023°31'0 0.0
2017-Jan-20 17:33N 37°51' E 023°31'0 0.1
2017-Jan-20 16:33N 37°51' E 023°31'0 0.0
2017-Jan-20 15:29N 37°51' E 023°31'0 0.0
2017-Jan-20 14:33N 37°51' E 023°31'5 5.2
2017-Jan-20 13:33N 37°56' E 023°34'2 1.8
2017-Jan-20 12:33N 37°58' E 023°35'  
2017-Jan-16 13:11N 37°58' E 023°35'3 5.2
2017-Jan-16 12:32N 37°55' E 023°33'6 6.4
2017-Jan-16 11:33N 37°52' E 023°26'7 7.0
2017-Jan-16 10:34N 37°54' E 023°17'7 6.9
2017-Jan-16 09:33N 37°55' E 023°08'2 0.3
2017-Jan-16 01:33N 37°55' E 023°06'1 0.9
2017-Jan-16 00:16N 37°55' E 023°04'0 0.0
2017-Jan-15 23:28N 37°55' E 023°04'0 0.0
2017-Jan-15 22:33N 37°55' E 023°04'0 0.0
2017-Jan-15 21:31N 37°55' E 023°04'1 1.2
2017-Jan-15 20:33N 37°55' E 023°06'8 7.7
2017-Jan-15 19:33N 37°54' E 023°15'7 7.3
2017-Jan-15 18:33N 37°52' E 023°24'7 6.9
2017-Jan-15 17:34N 37°55' E 023°32'3 3.4
2017-Jan-15 16:33N 37°58' E 023°35'  
2017-Jan-12 22:24N 37°58' E 023°35'4 4.2
2017-Jan-12 21:33N 37°54' E 023°34'1 1.0
2017-Jan-12 20:33N 37°53' E 023°33'0 0.0
2017-Jan-12 19:33N 37°53' E 023°33'2 2.1
2017-Jan-12 18:33N 37°55' E 023°34'3 2.6
2017-Jan-12 17:33N 37°57' E 023°36'0 0.0
2017-Jan-12 16:33N 37°57' E 023°36'0 0.0
2017-Jan-12 15:33N 37°57' E 023°36'0 0.0
2017-Jan-12 14:33N 37°57' E 023°36'0 0.0
2017-Jan-12 13:33N 37°57' E 023°36'1 1.1
2017-Jan-12 12:33N 37°58' E 023°35'0 0.0
2017-Jan-11 11:33N 37°58' E 023°35'0 0.3
2017-Jan-11 10:33N 37°57' E 023°34'  
Track history (hours):
 
Tides and Currents Weather Stations Pressure Air Temp Water Temp Dewpoint Dewpoint Depression Visibility Wind Speed Wind Dir Waves Ship Positions

Maria

Last reported at 2017-Jan-20 19:33 UTC. Time now 2017-Jan-20 20:12 UTC.
Position N 37°51' E 023°31'.

Length 74 m; draft 4.5 m.

Type: Ship. MMSI: 237493000.

Date/timePositionNaut miles runAvg speedWind from/ knotsBaromVisibWave heightAir tempDewpointWater temp
2017-Jan-20 19:33N 37°51' E 023°31'0 0.0
2017-Jan-20 18:33N 37°51' E 023°31'0 0.0
2017-Jan-20 17:33N 37°51' E 023°31'0 0.1
2017-Jan-20 16:33N 37°51' E 023°31'0 0.0
2017-Jan-20 15:29N 37°51' E 023°31'0 0.0
2017-Jan-20 14:33N 37°51' E 023°31'5 5.2
2017-Jan-20 13:33N 37°56' E 023°34'2 1.8
2017-Jan-20 12:33N 37°58' E 023°35'  
2017-Jan-16 13:11N 37°58' E 023°35'3 5.2
2017-Jan-16 12:32N 37°55' E 023°33'6 6.4
2017-Jan-16 11:33N 37°52' E 023°26'7 7.0
2017-Jan-16 10:34N 37°54' E 023°17'7 6.9
2017-Jan-16 09:33N 37°55' E 023°08'2 0.3
2017-Jan-16 01:33N 37°55' E 023°06'1 0.9
2017-Jan-16 00:16N 37°55' E 023°04'0 0.0
2017-Jan-15 23:28N 37°55' E 023°04'0 0.0
2017-Jan-15 22:33N 37°55' E 023°04'0 0.0
2017-Jan-15 21:31N 37°55' E 023°04'1 1.2
2017-Jan-15 20:33N 37°55' E 023°06'8 7.7
2017-Jan-15 19:33N 37°54' E 023°15'7 7.3
2017-Jan-15 18:33N 37°52' E 023°24'7 6.9
2017-Jan-15 17:34N 37°55' E 023°32'3 3.4
2017-Jan-15 16:33N 37°58' E 023°35'  
2017-Jan-12 22:24N 37°58' E 023°35'4 4.2
2017-Jan-12 21:33N 37°54' E 023°34'1 1.0
2017-Jan-12 20:33N 37°53' E 023°33'0 0.0
2017-Jan-12 19:33N 37°53' E 023°33'2 2.1
2017-Jan-12 18:33N 37°55' E 023°34'3 2.6
2017-Jan-12 17:33N 37°57' E 023°36'0 0.0
2017-Jan-12 16:33N 37°57' E 023°36'0 0.0
2017-Jan-12 15:33N 37°57' E 023°36'0 0.0
2017-Jan-12 14:33N 37°57' E 023°36'0 0.0
2017-Jan-12 13:33N 37°57' E 023°36'1 1.1
2017-Jan-12 12:33N 37°58' E 023°35'0 0.0
2017-Jan-11 11:33N 37°58' E 023°35'0 0.3
2017-Jan-11 10:33N 37°57' E 023°34'  

Dump ship's entire track history